Time;durP1;ratioP1;P1;durP2;ratioP2;P2;SDS_P1;SDS_P2;PMS_P1;PMS_P2;Temp;Humidity;BMP_temperature;BMP_pressure;BME280_temperature;BME280_humidity;BME280_pressure;Samples;Min_cycle;Max_cycle;Signal;HPM_P1;HPM_P2
2021/12/18 00:00:36;;;;;;;43.85;3.20;;;6.00;99.90;;;;;;5050918;28;20132;-78
2021/12/18 00:03:03;;;;;;;22.13;2.40;;;6.00;99.90;;;;;;5018080;28;20409;-79
2021/12/18 00:05:28;;;;;;;22.70;2.60;;;5.90;99.90;;;;;;5050939;28;20087;-79
2021/12/18 00:07:54;;;;;;;13.95;1.65;;;5.90;99.90;;;;;;5017815;28;20049;-78
2021/12/18 00:10:23;;;;;;;29.63;3.42;;;5.90;99.90;;;;;;5034048;28;20041;-81
2021/12/18 00:12:50;;;;;;;35.03;3.67;;;5.90;99.90;;;;;;5051021;28;20534;-81
2021/12/18 00:15:17;;;;;;;32.03;2.85;;;6.00;99.90;;;;;;5017572;28;20103;-78
2021/12/18 00:17:43;;;;;;;20.88;1.83;;;6.00;99.90;;;;;;5050837;28;20500;-78
2021/12/18 00:20:10;;;;;;;53.75;4.40;;;6.00;99.90;;;;;;5050740;28;20444;-81
2021/12/18 00:22:36;;;;;;;31.85;3.03;;;6.00;99.90;;;;;;5000650;28;20054;-79
2021/12/18 00:25:03;;;;;;;54.33;4.50;;;6.00;99.90;;;;;;5017754;28;20065;-81
2021/12/18 00:27:29;;;;;;;36.28;3.60;;;6.00;99.90;;;;;;5050465;28;20041;-78
2021/12/18 00:29:54;;;;;;;20.83;2.63;;;6.00;99.90;;;;;;5017372;28;20048;-79
2021/12/18 00:32:20;;;;;;;36.28;2.80;;;6.00;99.90;;;;;;5001351;28;20411;-80
2021/12/18 00:34:46;;;;;;;34.55;3.40;;;6.00;99.90;;;;;;5050310;28;20053;-78
2021/12/18 00:37:12;;;;;;;37.35;2.72;;;6.00;99.90;;;;;;5033653;28;20420;-78
2021/12/18 00:39:45;;;;;;;11.60;1.67;;;6.00;99.90;;;;;;5034086;28;20045;-80
2021/12/18 00:42:35;;;;;;;18.63;1.85;;;6.00;99.90;;;;;;5035076;28;20523;-78
2021/12/18 00:45:03;;;;;;;10.48;1.55;;;5.90;99.90;;;;;;5050609;28;20123;-78
2021/12/18 00:47:29;;;;;;;9.05;1.30;;;5.90;99.90;;;;;;5017362;28;20041;-78
2021/12/18 00:49:55;;;;;;;7.75;1.27;;;5.90;99.90;;;;;;5033121;28;20446;-78
2021/12/18 00:52:21;;;;;;;13.43;1.60;;;5.80;99.90;;;;;;5033563;28;20045;-78
2021/12/18 00:54:46;;;;;;;14.43;1.40;;;5.80;99.90;;;;;;5033461;28;20052;-78
2021/12/18 00:57:12;;;;;;;13.90;1.60;;;5.70;99.90;;;;;;5033639;28;20594;-78
2021/12/18 00:59:38;;;;;;;25.25;2.53;;;5.70;99.90;;;;;;5000552;28;20045;-81
2021/12/18 01:02:04;;;;;;;21.02;2.50;;;5.70;99.90;;;;;;5017121;28;20124;-78
2021/12/18 01:04:30;;;;;;;20.67;2.20;;;5.70;99.90;;;;;;5000780;28;20041;-81
2021/12/18 01:06:55;;;;;;;26.38;2.60;;;5.70;99.90;;;;;;5049968;28;20611;-81
2021/12/18 01:09:30;;;;;;;31.00;2.95;;;5.80;99.90;;;;;;5049817;28;20042;-81
2021/12/18 01:11:56;;;;;;;28.63;2.50;;;5.80;99.90;;;;;;5049650;28;20049;-81
2021/12/18 01:25:08;;;;;;;48.83;3.53;;;5.80;99.90;;;;;;5033025;28;20072;-80
2021/12/18 01:27:34;;;;;;;56.10;4.05;;;5.90;99.90;;;;;;5033054;28;20417;-81
2021/12/18 01:30:00;;;;;;;105.00;6.47;;;5.80;99.90;;;;;;5016273;28;20045;-81
2021/12/18 01:32:28;;;;;;;90.43;6.28;;;5.90;99.90;;;;;;5032686;28;20049;-78
2021/12/18 01:34:54;;;;;;;93.82;6.47;;;5.90;99.90;;;;;;5033011;28;20052;-81
2021/12/18 01:37:20;;;;;;;55.15;4.70;;;5.90;99.90;;;;;;5049215;28;20049;-78
2021/12/18 01:39:47;;;;;;;25.70;3.60;;;6.00;99.90;;;;;;4999840;28;20128;-81
2021/12/18 01:43:27;;;;;;;66.60;6.80;;;6.00;99.90;;;;;;5049328;28;20144;-81
2021/12/18 01:46:13;;;;;;;53.08;5.10;;;6.00;99.90;;;;;;5032413;28;20049;-78
2021/12/18 01:53:43;;;;;;;11.63;2.22;;;6.00;99.90;;;;;;5018718;28;20045;-78
2021/12/18 01:56:09;;;;;;;3.95;0.80;;;6.00;99.90;;;;;;4999695;28;20077;-81
2021/12/18 01:58:35;;;;;;;4.20;0.95;;;5.90;99.90;;;;;;5032163;28;20037;-78
2021/12/18 02:01:03;;;;;;;7.65;0.90;;;5.90;99.90;;;;;;4999670;28;20455;-79
2021/12/18 02:03:30;;;;;;;7.22;1.02;;;5.90;99.90;;;;;;5015620;28;20087;-78
2021/12/18 02:05:56;;;;;;;12.20;1.30;;;5.80;99.90;;;;;;4999235;28;20049;-81
2021/12/18 02:08:25;;;;;;;9.30;1.13;;;5.80;99.90;;;;;;5048910;28;20473;-78
2021/12/18 02:10:57;;;;;;;9.55;1.25;;;5.80;99.90;;;;;;5015402;28;20049;-78
2021/12/18 02:21:29;;;;;;;13.50;0.82;;;5.80;99.90;;;;;;5031945;28;20059;-81
2021/12/18 02:23:55;;;;;;;12.80;1.00;;;5.80;99.90;;;;;;5015280;28;20081;-81
2021/12/18 02:26:22;;;;;;;21.85;1.17;;;5.80;99.90;;;;;;5015312;28;20045;-78
2021/12/18 02:28:49;;;;;;;26.02;1.50;;;5.80;99.90;;;;;;5015260;28;20037;-80
2021/12/18 02:31:16;;;;;;;22.33;1.40;;;5.80;99.90;;;;;;5015195;28;20072;-80
2021/12/18 02:33:41;;;;;;;17.20;1.35;;;6.00;99.90;;;;;;5015231;28;20122;-81
2021/12/18 02:36:10;;;;;;;21.55;2.13;;;5.80;99.90;;;;;;5048438;28;20049;-81
2021/12/18 02:43:59;;;;;;;15.40;1.27;;;5.80;99.90;;;;;;5017563;28;20519;-78
2021/12/18 02:46:25;;;;;;;33.40;1.60;;;5.90;99.90;;;;;;5015193;28;20412;-81
2021/12/18 02:48:53;;;;;;;20.75;1.98;;;5.90;99.90;;;;;;5048165;28;20053;-81
2021/12/18 02:51:21;;;;;;;61.40;2.88;;;5.90;99.90;;;;;;5031499;28;20385;-77
2021/12/18 02:53:52;;;;;;;43.80;2.53;;;5.90;99.90;;;;;;5015230;28;20050;-78
2021/12/18 02:56:23;;;;;;;17.30;2.05;;;5.90;99.90;;;;;;5031594;28;20144;-78
2021/12/18 02:58:52;;;;;;;24.77;1.88;;;5.90;99.90;;;;;;5031698;28;20045;-81
2021/12/18 03:01:21;;;;;;;26.63;1.88;;;5.90;99.90;;;;;;5031619;28;20038;-81
2021/12/18 03:03:48;;;;;;;53.90;4.68;;;6.00;99.90;;;;;;5031249;28;20140;-81
2021/12/18 03:25:16;;;;;;;32.25;2.92;;;6.00;99.90;;;;;;5031350;28;20065;-78
2021/12/18 03:27:29;;;;;;;28.50;2.85;;;6.10;99.90;;;;;;5029084;28;20057;-78
2021/12/18 03:29:55;;;;;;;37.58;4.03;;;6.00;99.90;;;;;;5031354;28;20045;-81
2021/12/18 03:32:22;;;;;;;24.35;2.70;;;6.10;99.90;;;;;;4998805;28;20075;-79
2021/12/18 03:34:48;;;;;;;31.92;3.22;;;6.10;99.90;;;;;;5014537;28;20061;-78
2021/12/18 03:37:14;;;;;;;31.13;2.70;;;6.00;99.90;;;;;;5014665;28;20125;-81
2021/12/18 03:39:40;;;;;;;39.28;3.42;;;6.10;99.90;;;;;;5047722;28;20049;-79
2021/12/18 03:42:07;;;;;;;32.00;2.67;;;6.10;99.90;;;;;;5014929;28;20444;-81
2021/12/18 03:44:34;;;;;;;16.90;2.88;;;6.10;99.90;;;;;;5014621;28;20041;-82
2021/12/18 03:46:59;;;;;;;23.38;2.42;;;6.00;99.90;;;;;;5047767;28;20136;-78
2021/12/18 03:49:25;;;;;;;27.40;3.20;;;6.20;99.90;;;;;;5014631;28;20575;-81
2021/12/18 03:51:51;;;;;;;30.63;3.38;;;6.30;99.90;;;;;;5047563;28;20701;-82
2021/12/18 03:54:17;;;;;;;31.95;3.10;;;6.20;99.90;;;;;;5031009;28;20049;-82
2021/12/18 03:56:43;;;;;;;34.65;3.40;;;6.20;99.90;;;;;;5049148;28;20046;-81
2021/12/18 03:59:09;;;;;;;41.03;3.42;;;6.20;99.90;;;;;;5034540;28;20041;-79
2021/12/18 04:01:35;;;;;;;23.98;3.10;;;6.20;99.90;;;;;;5001891;28;20519;-82
2021/12/18 04:04:01;;;;;;;42.28;3.80;;;6.20;99.90;;;;;;5034453;28;20034;-78
2021/12/18 04:06:27;;;;;;;25.27;3.00;;;6.20;99.90;;;;;;5034785;28;20136;-82
2021/12/18 04:08:53;;;;;;;25.80;3.00;;;6.20;99.90;;;;;;5051155;28;20400;-78
2021/12/18 04:11:20;;;;;;;40.75;3.58;;;6.20;99.90;;;;;;5017893;28;20049;-81
2021/12/18 04:13:47;;;;;;;36.47;3.75;;;6.20;99.90;;;;;;5050958;28;20458;-78
2021/12/18 04:16:13;;;;;;;41.60;3.80;;;6.20;99.90;;;;;;5017656;28;20234;-82
2021/12/18 04:18:40;;;;;;;31.30;4.20;;;6.30;99.90;;;;;;5017796;28;20510;-79
2021/12/18 04:21:06;;;;;;;43.78;4.82;;;6.30;99.90;;;;;;5017474;28;20048;-79
2021/12/18 04:23:32;;;;;;;49.05;5.00;;;6.30;99.90;;;;;;5050543;28;20053;-79
2021/12/18 04:25:58;;;;;;;53.30;5.45;;;6.30;99.90;;;;;;5034269;28;20373;-78
2021/12/18 04:28:24;;;;;;;46.35;5.40;;;6.30;99.90;;;;;;5050426;28;20045;-79
2021/12/18 04:30:50;;;;;;;53.40;5.32;;;6.50;99.90;;;;;;5033690;28;20049;-79
2021/12/18 04:33:16;;;;;;;62.85;5.82;;;6.40;99.90;;;;;;5033513;28;20064;-78
2021/12/18 04:35:42;;;;;;;64.15;6.55;;;6.40;99.90;;;;;;5050761;28;20688;-79
2021/12/18 04:38:07;;;;;;;61.67;6.68;;;6.40;99.90;;;;;;5017219;28;20051;-82
2021/12/18 04:40:35;;;;;;;45.67;6.28;;;6.40;99.90;;;;;;5033668;28;20491;-79
2021/12/18 04:43:01;;;;;;;57.85;6.45;;;6.40;99.90;;;;;;5050181;28;20038;-79
2021/12/18 04:45:27;;;;;;;65.70;7.85;;;6.40;99.90;;;;;;5050227;28;20048;-79
2021/12/18 04:47:56;;;;;;;56.35;8.25;;;6.40;99.90;;;;;;5033455;28;20496;-78
2021/12/18 04:50:23;;;;;;;73.45;8.85;;;6.50;99.90;;;;;;5033387;28;20132;-82
2021/12/18 04:52:49;;;;;;;42.53;7.32;;;6.60;99.90;;;;;;5016917;28;20072;-82
2021/12/18 04:55:15;;;;;;;50.30;7.72;;;6.50;99.90;;;;;;5033524;28;20166;-79
2021/12/18 04:57:41;;;;;;;61.00;8.77;;;6.50;99.90;;;;;;5033432;28;20098;-79
2021/12/18 05:00:09;;;;;;;53.25;8.65;;;6.70;99.90;;;;;;5033390;28;20053;-79
2021/12/18 05:02:41;;;;;;;69.68;8.82;;;6.60;99.90;;;;;;5016711;28;20077;-81
2021/12/18 05:05:09;;;;;;;46.78;8.43;;;6.60;99.90;;;;;;5049841;28;20132;-82
2021/12/18 05:07:34;;;;;;;37.97;7.82;;;6.70;99.90;;;;;;5049473;28;20092;-81
2021/12/18 05:10:00;;;;;;;36.25;7.25;;;6.70;99.90;;;;;;5033299;28;20073;-82
2021/12/18 05:12:26;;;;;;;32.58;7.00;;;6.80;99.90;;;;;;5016666;28;20042;-81
2021/12/18 05:14:52;;;;;;;28.40;6.82;;;6.80;99.90;;;;;;5000314;28;20411;-79
2021/12/18 05:17:18;;;;;;;31.33;7.18;;;6.80;99.90;;;;;;5049795;28;20041;-81
2021/12/18 05:19:43;;;;;;;32.50;6.93;;;6.90;99.90;;;;;;5049730;28;20107;-79
2021/12/18 05:22:09;;;;;;;21.13;5.07;;;6.90;99.90;;;;;;5000285;28;20096;-79
2021/12/18 05:24:35;;;;;;;34.33;6.30;;;6.90;99.90;;;;;;5000062;28;20056;-82
2021/12/18 05:27:01;;;;;;;29.02;6.43;;;6.90;99.90;;;;;;5049381;28;20050;-82
2021/12/18 05:29:27;;;;;;;27.02;5.65;;;7.00;99.90;;;;;;5016388;28;20037;-78
2021/12/18 05:31:52;;;;;;;27.80;6.38;;;7.10;99.90;;;;;;5016091;28;20045;-78
2021/12/18 05:34:23;;;;;;;26.33;5.50;;;6.90;99.90;;;;;;5049083;28;20049;-81
2021/12/18 05:39:28;;;;;;;21.50;4.53;;;7.00;99.90;;;;;;5032866;28;20488;-81
2021/12/18 05:41:56;;;;;;;25.60;5.20;;;7.00;99.90;;;;;;5016423;28;20130;-78
2021/12/18 05:44:25;;;;;;;27.77;4.53;;;7.00;99.90;;;;;;5049359;28;20522;-81
2021/12/18 05:46:52;;;;;;;19.02;4.45;;;7.00;99.90;;;;;;5015987;28;20047;-81
2021/12/18 05:49:19;;;;;;;22.00;4.70;;;7.00;99.90;;;;;;5048985;28;20053;-81
2021/12/18 05:51:45;;;;;;;19.33;3.55;;;7.00;99.90;;;;;;5048962;28;20641;-81
2021/12/18 05:54:12;;;;;;;17.02;4.30;;;7.00;99.90;;;;;;5048966;28;20124;-78
2021/12/18 05:56:38;;;;;;;20.65;4.45;;;7.00;99.90;;;;;;4999721;28;20377;-78
2021/12/18 05:59:05;;;;;;;15.43;3.97;;;7.10;99.90;;;;;;5032430;28;20089;-79
2021/12/18 06:01:31;;;;;;;20.48;5.50;;;7.10;99.90;;;;;;4999562;28;20053;-81
2021/12/18 06:03:57;;;;;;;30.15;5.45;;;7.00;99.90;;;;;;5049085;28;20408;-78
2021/12/18 06:06:23;;;;;;;25.80;5.72;;;7.00;99.90;;;;;;5048818;28;20048;-79
2021/12/18 06:08:49;;;;;;;30.48;6.05;;;7.00;99.90;;;;;;5048402;28;20087;-79
2021/12/18 06:11:17;;;;;;;26.50;5.55;;;7.00;99.90;;;;;;5015512;28;20056;-79
2021/12/18 06:13:50;;;;;;;30.23;6.13;;;7.00;99.90;;;;;;4999304;28;20041;-79
2021/12/18 06:16:17;;;;;;;27.02;6.22;;;7.10;99.90;;;;;;5015528;28;20041;-78
2021/12/18 06:18:45;;;;;;;27.95;6.25;;;7.00;99.90;;;;;;5014955;28;20057;-79
2021/12/18 06:21:15;;;;;;;28.20;6.47;;;7.10;99.90;;;;;;5031920;28;20045;-79
2021/12/18 06:23:49;;;;;;;25.55;6.43;;;7.10;99.90;;;;;;5048739;28;20488;-82
2021/12/18 06:26:16;;;;;;;30.05;5.95;;;7.10;99.90;;;;;;5015452;28;20045;-78
2021/12/18 06:28:42;;;;;;;21.48;5.93;;;7.20;99.90;;;;;;5015564;28;20136;-78
2021/12/18 06:31:08;;;;;;;29.13;5.95;;;7.10;99.90;;;;;;5031956;28;20045;-78
2021/12/18 06:33:34;;;;;;;20.45;5.30;;;7.20;99.90;;;;;;4998746;28;20062;-78
2021/12/18 06:36:00;;;;;;;26.50;6.43;;;7.20;99.90;;;;;;5032025;28;20526;-82
2021/12/18 06:38:25;;;;;;;34.15;7.85;;;7.20;99.90;;;;;;5031654;28;20077;-81
2021/12/18 06:40:51;;;;;;;24.95;6.43;;;7.20;99.90;;;;;;5048483;28;20045;-82
2021/12/18 06:43:17;;;;;;;27.48;6.07;;;7.30;99.90;;;;;;5048142;28;20171;-78
2021/12/18 06:45:43;;;;;;;31.45;6.78;;;7.20;99.90;;;;;;5048176;28;20053;-78
2021/12/18 06:48:09;;;;;;;20.48;5.20;;;7.30;99.90;;;;;;5015342;28;20480;-82
2021/12/18 06:50:36;;;;;;;33.38;7.38;;;7.20;99.90;;;;;;5031471;28;20042;-78
2021/12/18 06:53:03;;;;;;;28.65;6.50;;;7.30;99.90;;;;;;4998714;28;20048;-82
2021/12/18 06:55:30;;;;;;;24.05;5.63;;;7.30;99.90;;;;;;5048081;28;20132;-79
2021/12/18 06:57:56;;;;;;;28.15;6.15;;;7.30;99.90;;;;;;5031637;28;20080;-78
2021/12/18 07:00:23;;;;;;;26.45;5.68;;;7.20;99.90;;;;;;4998976;28;20455;-79
2021/12/18 07:02:49;;;;;;;20.42;5.82;;;7.30;99.90;;;;;;5047936;28;20045;-78
2021/12/18 07:05:15;;;;;;;23.08;6.07;;;7.20;99.90;;;;;;5047979;28;20128;-78
2021/12/18 07:07:41;;;;;;;21.95;5.72;;;7.30;99.90;;;;;;5031349;28;20034;-82
2021/12/18 07:10:09;;;;;;;13.63;4.95;;;7.30;99.90;;;;;;5048013;28;20045;-82
2021/12/18 07:12:35;;;;;;;14.98;4.82;;;7.30;99.90;;;;;;5031667;28;20396;-79
2021/12/18 07:15:06;;;;;;;17.25;5.20;;;7.40;99.90;;;;;;5031648;28;20245;-79
2021/12/18 07:17:32;;;;;;;13.35;4.40;;;7.30;99.90;;;;;;5014907;28;20088;-78
2021/12/18 07:19:58;;;;;;;20.80;5.80;;;7.50;99.90;;;;;;5014652;28;20049;-82
2021/12/18 07:22:23;;;;;;;15.60;5.43;;;7.40;99.90;;;;;;5048123;28;20164;-81
2021/12/18 07:24:49;;;;;;;20.58;6.05;;;7.40;99.90;;;;;;4998342;28;20037;-81
2021/12/18 07:27:15;;;;;;;19.73;5.70;;;7.40;99.90;;;;;;5047878;28;20056;-82
2021/12/18 07:29:41;;;;;;;17.83;5.45;;;7.40;99.90;;;;;;5014886;28;20099;-79
2021/12/18 07:32:07;;;;;;;12.20;5.25;;;7.40;99.90;;;;;;5051530;28;20045;-80
2021/12/18 07:34:33;;;;;;;17.15;4.85;;;7.40;99.90;;;;;;5002053;28;20543;-82
2021/12/18 07:36:59;;;;;;;15.27;4.32;;;7.40;99.90;;;;;;5034918;28;20056;-81
2021/12/18 07:39:25;;;;;;;13.77;4.72;;;7.40;99.90;;;;;;5035259;28;20049;-83
2021/12/18 07:41:50;;;;;;;15.50;5.30;;;7.40;99.90;;;;;;5051529;28;20044;-79
2021/12/18 07:44:16;;;;;;;13.55;4.35;;;7.40;99.90;;;;;;5034824;28;20041;-78
2021/12/18 07:46:42;;;;;;;12.45;4.50;;;7.40;99.90;;;;;;5018209;28;20108;-80
2021/12/18 07:49:09;;;;;;;14.25;5.22;;;7.40;99.90;;;;;;5018024;28;20050;-79
2021/12/18 07:51:35;;;;;;;14.55;5.38;;;7.40;99.90;;;;;;5018158;28;20411;-82
2021/12/18 07:54:03;;;;;;;16.48;4.70;;;7.40;99.90;;;;;;5018228;28;20250;-79
2021/12/18 07:56:29;;;;;;;15.80;5.20;;;7.50;99.90;;;;;;5051176;28;20041;-82
2021/12/18 07:58:54;;;;;;;17.80;5.28;;;7.50;99.90;;;;;;5018023;28;20081;-81
2021/12/18 08:01:20;;;;;;;13.85;4.22;;;7.50;99.90;;;;;;5034611;28;20081;-79
2021/12/18 08:03:46;;;;;;;14.23;5.28;;;7.50;99.90;;;;;;5017727;28;20045;-82
2021/12/18 08:06:12;;;;;;;19.20;4.93;;;7.50;99.90;;;;;;5034586;28;20053;-78
2021/12/18 08:08:38;;;;;;;16.40;4.53;;;7.40;99.90;;;;;;5050830;28;20488;-79
2021/12/18 08:11:04;;;;;;;18.75;5.07;;;7.50;99.90;;;;;;5034041;28;20052;-80
2021/12/18 08:13:30;;;;;;;14.82;5.85;;;7.50;99.90;;;;;;5050826;28;20045;-79
2021/12/18 08:15:56;;;;;;;19.73;5.10;;;7.50;99.90;;;;;;5051025;28;20454;-79
2021/12/18 08:18:22;;;;;;;18.02;4.50;;;7.50;99.90;;;;;;5001314;28;20055;-82
2021/12/18 08:20:48;;;;;;;16.60;4.20;;;7.50;99.90;;;;;;5051021;28;20089;-79
2021/12/18 08:23:13;;;;;;;14.25;4.57;;;7.50;99.90;;;;;;5017395;28;20041;-79
2021/12/18 08:25:40;;;;;;;15.70;4.85;;;7.50;99.90;;;;;;5001941;28;20072;-81
2021/12/18 08:28:06;;;;;;;13.77;4.10;;;7.60;99.90;;;;;;5050361;28;20056;-79
2021/12/18 08:30:35;;;;;;;14.45;4.47;;;7.60;99.90;;;;;;5017275;28;20136;-79
2021/12/18 08:33:01;;;;;;;15.68;4.47;;;7.60;99.90;;;;;;5050134;28;20062;-82
2021/12/18 08:35:29;;;;;;;15.48;3.55;;;7.60;99.90;;;;;;5051008;28;20496;-82
2021/12/18 08:37:57;;;;;;;15.18;3.85;;;7.60;99.90;;;;;;5001671;28;20132;-82
2021/12/18 08:40:23;;;;;;;19.80;5.85;;;7.60;99.90;;;;;;5050229;28;20049;-78
2021/12/18 08:42:49;;;;;;;14.15;4.63;;;7.60;99.90;;;;;;5016710;28;20550;-81
2021/12/18 08:45:15;;;;;;;13.57;4.43;;;7.70;99.90;;;;;;5050197;28;20046;-81
2021/12/18 08:47:42;;;;;;;13.57;4.07;;;7.60;99.90;;;;;;5050348;28;20488;-79
2021/12/18 08:50:10;;;;;;;21.50;4.85;;;7.60;99.90;;;;;;5050208;28;20045;-82
2021/12/18 08:52:37;;;;;;;16.02;4.63;;;7.70;99.90;;;;;;5050279;28;20041;-79
2021/12/18 08:55:05;;;;;;;26.60;4.78;;;7.70;99.90;;;;;;5000960;28;20053;-79
2021/12/18 08:57:31;;;;;;;12.65;5.07;;;7.70;99.90;;;;;;5050054;28;20128;-82
2021/12/18 08:59:56;;;;;;;19.33;5.53;;;7.70;99.90;;;;;;5050121;28;20523;-82
2021/12/18 09:02:23;;;;;;;18.38;5.03;;;7.80;99.90;;;;;;5001110;28;20373;-82
2021/12/18 09:04:49;;;;;;;19.48;5.50;;;7.80;99.90;;;;;;5034424;28;20480;-82
2021/12/18 09:07:18;;;;;;;19.52;5.72;;;7.80;99.90;;;;;;5049891;28;20084;-79
2021/12/18 09:09:44;;;;;;;16.85;5.50;;;7.80;99.90;;;;;;5017352;28;20044;-79
2021/12/18 09:12:11;;;;;;;22.23;5.40;;;7.90;99.90;;;;;;5033161;28;20423;-80
2021/12/18 09:14:38;;;;;;;15.57;6.20;;;7.80;99.90;;;;;;5033091;28;20049;-82
2021/12/18 09:17:05;;;;;;;12.20;3.47;;;7.90;99.90;;;;;;5018378;28;20403;-79
2021/12/18 09:19:30;;;;;;;14.40;4.15;;;7.80;99.90;;;;;;5033102;28;20045;-79
2021/12/18 09:21:58;;;;;;;16.85;5.18;;;7.80;99.90;;;;;;5050058;28;20034;-81
2021/12/18 09:24:24;;;;;;;15.70;4.60;;;7.70;99.90;;;;;;5016407;28;20041;-79
2021/12/18 09:26:51;;;;;;;17.98;4.43;;;7.80;99.90;;;;;;5032955;28;20124;-82
2021/12/18 09:29:18;;;;;;;15.93;5.57;;;7.90;99.90;;;;;;5049756;28;20052;-78
2021/12/18 09:31:44;;;;;;;11.32;4.07;;;7.80;99.90;;;;;;5033097;28;20049;-78
2021/12/18 09:34:09;;;;;;;13.55;4.75;;;7.80;99.90;;;;;;5033604;28;20053;-82
2021/12/18 09:36:35;;;;;;;11.48;3.88;;;7.80;99.90;;;;;;5016078;28;20049;-82
2021/12/18 09:39:01;;;;;;;11.77;3.92;;;7.80;99.90;;;;;;5032584;28;20120;-82
2021/12/18 09:41:27;;;;;;;9.40;3.90;;;7.80;99.90;;;;;;5032845;28;20097;-80
2021/12/18 09:43:53;;;;;;;15.88;4.55;;;7.70;99.90;;;;;;5032323;28;20038;-82
2021/12/18 09:46:19;;;;;;;18.33;5.15;;;7.80;99.90;;;;;;5032867;28;20045;-82
2021/12/18 09:48:45;;;;;;;5.95;2.40;;;7.70;99.90;;;;;;5049201;28;20049;-79
2021/12/18 09:51:14;;;;;;;13.10;5.30;;;7.80;99.90;;;;;;5032374;28;20046;-82
2021/12/18 09:53:40;;;;;;;12.95;5.18;;;7.80;99.90;;;;;;5014945;28;20041;-79
2021/12/18 09:56:07;;;;;;;15.52;5.20;;;7.80;99.90;;;;;;5015800;28;20132;-82
2021/12/18 09:58:33;;;;;;;18.17;5.88;;;7.90;99.90;;;;;;5032660;28;20400;-82
2021/12/18 10:00:59;;;;;;;19.15;6.60;;;7.80;99.90;;;;;;5032392;28;20046;-80
2021/12/18 10:04:03;;;;;;;16.58;6.68;;;7.80;99.90;;;;;;5015876;28;20045;-82
2021/12/18 10:06:43;;;;;;;20.20;7.65;;;7.80;99.90;;;;;;5014585;28;20085;-79
2021/12/18 10:09:16;;;;;;;19.23;6.35;;;7.80;99.90;;;;;;5032750;28;20049;-81
2021/12/18 10:11:49;;;;;;;18.45;7.13;;;7.80;99.90;;;;;;5048530;28;20060;-82
2021/12/18 10:14:16;;;;;;;16.00;6.13;;;7.80;99.90;;;;;;5016182;28;20124;-82
2021/12/18 10:16:51;;;;;;;24.13;6.97;;;7.80;99.90;;;;;;5048440;28;20103;-82
2021/12/18 10:19:29;;;;;;;15.55;5.90;;;7.90;99.90;;;;;;5049148;28;20068;-79
2021/12/18 10:22:04;;;;;;;8.13;3.35;;;8.00;99.90;;;;;;5015879;28;20171;-82
2021/12/18 10:24:32;;;;;;;11.23;4.35;;;7.90;99.90;;;;;;5048961;28;20384;-82
2021/12/18 10:26:58;;;;;;;10.23;3.97;;;7.90;99.90;;;;;;5049716;28;20130;-82
2021/12/18 10:29:37;;;;;;;11.23;3.78;;;7.90;99.90;;;;;;5015347;28;20092;-82
2021/12/18 10:32:23;;;;;;;13.73;6.40;;;7.90;99.90;;;;;;5015330;28;20037;-82
2021/12/18 10:34:57;;;;;;;13.63;4.65;;;7.90;99.90;;;;;;5048618;28;20056;-82
2021/12/18 10:37:27;;;;;;;;;;;7.90;99.90;;;;;;5032624;28;20062;-79
2021/12/18 10:40:08;;;;;;;10.55;3.47;;;8.00;99.90;;;;;;5031965;28;20372;-79
2021/12/18 10:42:39;;;;;;;12.45;4.40;;;7.90;99.90;;;;;;5015212;28;20106;-82
2021/12/18 10:45:18;;;;;;;7.35;2.75;;;8.10;99.90;;;;;;5015174;28;20098;-79
2021/12/18 10:47:53;;;;;;;15.90;3.72;;;8.00;99.90;;;;;;5015424;28;20041;-80
2021/12/18 10:50:30;;;;;;;8.95;3.58;;;8.00;99.90;;;;;;5048238;28;20049;-79
2021/12/18 10:53:17;;;;;;;8.98;3.50;;;8.00;99.90;;;;;;5048307;28;20045;-82
2021/12/18 10:55:50;;;;;;;9.63;3.45;;;8.10;99.90;;;;;;5049508;28;20607;-82
2021/12/18 10:58:37;;;;;;;12.10;4.38;;;8.10;99.90;;;;;;5031325;28;20081;-82
2021/12/18 11:01:11;;;;;;;17.85;3.30;;;8.30;99.90;;;;;;5015203;28;20506;-83
2021/12/18 11:03:46;;;;;;;13.98;4.63;;;8.10;99.90;;;;;;5015195;28;20392;-83
2021/12/18 11:06:15;;;;;;;10.63;3.35;;;8.20;99.90;;;;;;5050578;28;20063;-79
2021/12/18 11:09:04;;;;;;;13.48;3.63;;;8.10;99.90;;;;;;5035574;28;20049;-82
2021/12/18 11:13:58;;;;;;;11.18;2.90;;;8.20;99.90;;;;;;5035901;28;20103;-79
2021/12/18 11:16:25;;;;;;;14.27;2.60;;;8.20;99.90;;;;;;5020297;28;20052;-79
2021/12/18 11:18:55;;;;;;;11.35;2.80;;;8.20;99.90;;;;;;5035427;28;20044;-82
2021/12/18 11:21:24;;;;;;;11.43;3.28;;;8.20;99.90;;;;;;5001106;28;20042;-82
2021/12/18 11:24:04;;;;;;;12.90;3.10;;;8.30;99.90;;;;;;5034433;28;20039;-83
2021/12/18 11:26:41;;;;;;;8.57;2.67;;;8.20;99.90;;;;;;5034352;28;20128;-82
2021/12/18 11:29:18;;;;;;;13.70;2.70;;;8.30;99.90;;;;;;5034328;28;20053;-81
2021/12/18 11:31:45;;;;;;;9.07;2.65;;;8.30;99.90;;;;;;5051017;28;20111;-79
2021/12/18 11:34:12;;;;;;;10.43;2.58;;;8.30;99.90;;;;;;5000965;28;20123;-82
2021/12/18 11:36:40;;;;;;;8.95;2.97;;;8.30;99.90;;;;;;5034297;28;20052;-82
2021/12/18 11:39:07;;;;;;;13.88;2.80;;;8.30;99.90;;;;;;5034716;28;20049;-82
2021/12/18 11:41:33;;;;;;;10.73;3.60;;;8.40;99.90;;;;;;5016951;28;20041;-82
2021/12/18 11:43:59;;;;;;;16.73;3.65;;;8.40;99.90;;;;;;5017276;28;20436;-81
2021/12/18 11:46:37;;;;;;;14.10;2.20;;;8.40;99.90;;;;;;5033739;28;20567;-80
2021/12/18 11:49:09;;;;;;;12.00;2.95;;;8.40;99.90;;;;;;5034356;28;20443;-82
2021/12/18 11:51:36;;;;;;;12.65;2.78;;;8.40;99.90;;;;;;5034043;28;20042;-79
2021/12/18 11:54:05;;;;;;;10.57;2.33;;;8.50;99.90;;;;;;5017533;28;20106;-79
2021/12/18 11:56:49;;;;;;;10.80;2.60;;;8.50;99.90;;;;;;5050566;28;20400;-79
2021/12/18 11:59:41;;;;;;;11.95;3.17;;;8.30;99.90;;;;;;5033820;28;20094;-82
2021/12/18 12:02:08;;;;;;;11.68;2.13;;;8.30;99.90;;;;;;5050527;28;20496;-79
2021/12/18 12:05:04;;;;;;;13.05;2.92;;;8.30;99.90;;;;;;5033592;28;20037;-82
2021/12/18 12:07:31;;;;;;;8.93;1.60;;;8.20;99.90;;;;;;5034149;28;20076;-81
2021/12/18 12:10:07;;;;;;;15.05;2.92;;;8.30;99.90;;;;;;5033705;28;20076;-82
2021/12/18 12:12:56;;;;;;;13.40;2.38;;;8.30;99.90;;;;;;5033286;28;20122;-79
2021/12/18 12:15:25;;;;;;;9.80;2.50;;;8.30;99.90;;;;;;5047965;28;20053;-82
2021/12/18 12:18:03;;;;;;;12.60;3.67;;;8.30;99.90;;;;;;5048615;28;20045;-79
2021/12/18 12:20:42;;;;;;;11.75;3.10;;;8.20;99.90;;;;;;5049931;28;20041;-82
2021/12/18 12:23:10;;;;;;;13.93;2.88;;;8.20;99.90;;;;;;5049651;28;20048;-79
2021/12/18 12:25:47;;;;;;;12.80;3.20;;;8.30;99.90;;;;;;5049245;28;20037;-79
2021/12/18 12:28:33;;;;;;;6.72;1.95;;;8.30;99.90;;;;;;5049537;28;20090;-82
2021/12/18 12:30:58;;;;;;;8.82;2.33;;;8.30;99.90;;;;;;5006434;28;20045;-82
2021/12/18 12:33:29;;;;;;;7.28;2.35;;;8.30;99.90;;;;;;5016398;28;20053;-82
2021/12/18 12:36:03;;;;;;;14.88;2.60;;;8.30;99.90;;;;;;5046157;28;20046;-82
2021/12/18 12:38:35;;;;;;;8.00;1.88;;;8.30;99.90;;;;;;5016960;28;20400;-79
2021/12/18 12:41:28;;;;;;;8.23;2.25;;;8.30;99.90;;;;;;5032495;28;20422;-79
2021/12/18 12:44:00;;;;;;;7.00;2.00;;;8.30;99.90;;;;;;5018335;28;20045;-82
2021/12/18 12:46:27;;;;;;;15.85;2.08;;;8.30;99.90;;;;;;5016314;28;20095;-79
2021/12/18 12:49:02;;;;;;;9.70;2.42;;;8.30;99.90;;;;;;5016050;28;20033;-78
2021/12/18 12:51:58;;;;;;;7.65;1.88;;;8.30;99.90;;;;;;5029680;28;20123;-79
2021/12/18 12:54:53;;;;;;;22.27;2.90;;;8.30;99.90;;;;;;5031289;28;20464;-78
2021/12/18 12:57:27;;;;;;;12.07;2.30;;;8.30;99.90;;;;;;5039935;28;20453;-82
2021/12/18 12:59:59;;;;;;;6.50;1.88;;;8.30;99.90;;;;;;5046635;28;20049;-82
2021/12/18 13:02:30;;;;;;;13.75;2.38;;;8.30;99.90;;;;;;5033030;28;20041;-82
2021/12/18 13:05:08;;;;;;;11.77;2.15;;;8.30;99.90;;;;;;5033703;28;20037;-82
2021/12/18 13:07:34;;;;;;;8.35;2.20;;;8.30;99.90;;;;;;5032895;28;20041;-82
2021/12/18 13:10:00;;;;;;;11.50;2.30;;;8.30;99.90;;;;;;5033177;28;20128;-80
2021/12/18 13:12:26;;;;;;;10.93;2.53;;;8.50;99.90;;;;;;5032429;28;20132;-79
2021/12/18 13:14:54;;;;;;;8.88;2.33;;;8.30;99.90;;;;;;5032736;28;20131;-79
2021/12/18 13:17:22;;;;;;;10.70;2.28;;;8.40;99.90;;;;;;5033181;28;20052;-79
2021/12/18 13:20:00;;;;;;;8.65;2.00;;;8.40;99.90;;;;;;5015900;28;20034;-79
2021/12/18 13:22:32;;;;;;;14.45;2.85;;;8.30;99.90;;;;;;5029931;28;20092;-82
2021/12/18 13:25:14;;;;;;;9.10;2.33;;;8.30;99.90;;;;;;5015798;28;20052;-79
2021/12/18 13:27:42;;;;;;;11.05;2.70;;;8.30;99.90;;;;;;5016018;28;20258;-79
2021/12/18 13:30:20;;;;;;;9.15;2.10;;;8.30;99.90;;;;;;5032144;28;20076;-78
2021/12/18 13:32:51;;;;;;;12.82;1.77;;;8.30;99.90;;;;;;5015992;28;20511;-82
2021/12/18 13:35:18;;;;;;;11.75;2.03;;;8.30;99.90;;;;;;5031701;28;20045;-79
2021/12/18 13:37:58;;;;;;;10.90;2.08;;;8.30;99.90;;;;;;5016282;28;20534;-82
2021/12/18 13:40:26;;;;;;;10.93;2.03;;;8.30;99.90;;;;;;5031476;28;20050;-79
2021/12/18 13:43:07;;;;;;;4.05;1.02;;;8.30;99.90;;;;;;5032988;28;20050;-79
2021/12/18 13:45:47;;;;;;;6.65;1.65;;;8.20;99.90;;;;;;5042822;28;20042;-79
2021/12/18 13:48:13;;;;;;;10.60;2.70;;;8.30;99.90;;;;;;5014953;28;20041;-79
2021/12/18 13:50:39;;;;;;;9.45;1.92;;;8.20;99.90;;;;;;5031208;28;20045;-82